createdAt,value
2023-03-01T08:41:55.940Z,99.90
2023-03-01T10:10:56.300Z,95.00
2023-03-01T13:33:36.369Z,85.70
2023-03-01T16:53:37.301Z,91.60
2023-03-01T17:42:03.479Z,93.40
2023-03-01T17:44:34.684Z,93.90
2023-03-01T17:47:03.656Z,94.00
2023-03-01T17:49:34.615Z,93.80
2023-03-01T17:52:22.865Z,94.10
2023-03-01T17:57:52.693Z,94.50
2023-03-01T18:00:20.277Z,94.80
2023-03-01T18:02:49.641Z,95.00
2023-03-01T18:05:17.370Z,95.20
2023-03-01T19:34:50.504Z,99.90
2023-03-01T19:45:33.272Z,99.90
2023-03-01T19:56:02.477Z,99.90
2023-03-01T19:58:29.910Z,99.90
2023-03-01T20:01:00.813Z,99.90
2023-03-01T20:03:29.231Z,99.90
2023-03-01T20:05:56.725Z,99.90
2023-03-01T20:08:27.884Z,99.90
2023-03-01T20:11:01.002Z,99.90
2023-03-01T20:13:27.672Z,99.90
2023-03-01T20:15:57.464Z,99.90
2023-03-01T20:18:24.260Z,99.90
2023-03-01T20:20:51.113Z,99.90
2023-03-01T20:23:19.211Z,99.90
2023-03-01T20:25:46.576Z,99.90
2023-03-01T20:28:13.972Z,99.90
2023-03-01T20:30:40.868Z,99.90
2023-03-01T20:33:07.939Z,99.90
2023-03-01T20:35:36.203Z,99.90
2023-03-01T20:38:04.387Z,99.90
2023-03-01T20:40:31.837Z,99.90
2023-03-01T20:42:59.763Z,99.90
2023-03-01T20:45:28.159Z,99.90
2023-03-01T20:47:56.601Z,99.90
2023-03-01T20:50:23.409Z,99.90
2023-03-01T20:52:50.197Z,99.90
2023-03-01T20:55:17.083Z,99.90
2023-03-01T20:57:43.996Z,99.90
2023-03-01T21:00:11.702Z,99.90
2023-03-01T21:02:39.794Z,99.90
2023-03-01T21:05:06.967Z,99.90
2023-03-01T21:07:33.763Z,99.90
2023-03-01T21:10:00.965Z,99.90
2023-03-01T21:12:31.157Z,99.90
2023-03-01T21:14:58.821Z,99.90
2023-03-01T21:17:27.098Z,99.90
2023-03-01T21:19:54.383Z,99.90
2023-03-01T21:22:35.150Z,99.90
2023-03-01T21:25:03.574Z,99.90
2023-03-01T21:27:31.138Z,99.90
2023-03-01T21:29:59.035Z,99.90
2023-03-01T21:32:25.774Z,99.90
2023-03-01T21:34:52.594Z,99.90
2023-03-01T21:37:24.744Z,99.90
2023-03-01T21:39:51.431Z,99.90
2023-03-01T21:42:18.786Z,99.90
2023-03-01T21:44:45.974Z,99.90
2023-03-01T21:47:12.733Z,99.90
2023-03-01T21:49:39.931Z,99.90
2023-03-01T21:52:06.737Z,99.90
2023-03-01T21:54:34.237Z,99.90
2023-03-01T21:57:02.276Z,99.90
2023-03-01T21:59:31.033Z,99.90
2023-03-01T22:01:58.372Z,99.90
2023-03-01T22:04:25.828Z,99.90
2023-03-01T22:06:54.317Z,99.90
2023-03-01T22:09:24.375Z,99.90
2023-03-01T22:11:54.465Z,99.90
2023-03-01T22:14:21.325Z,99.90
2023-03-01T22:16:48.208Z,99.90
2023-03-01T22:19:15.624Z,99.90
2023-03-01T22:21:43.857Z,99.90
2023-03-01T22:24:11.503Z,99.90
2023-03-01T22:26:39.848Z,99.90
2023-03-01T22:29:08.757Z,99.90
2023-03-01T22:31:35.762Z,99.90
2023-03-01T22:34:02.629Z,99.90
2023-03-01T22:36:29.935Z,99.90
2023-03-01T22:39:00.485Z,99.90
2023-03-01T22:41:32.154Z,99.90
2023-03-01T22:43:59.094Z,99.90
2023-03-01T22:46:26.402Z,99.90
2023-03-01T22:48:53.383Z,99.90
2023-03-01T22:51:22.353Z,99.90
2023-03-01T22:53:49.230Z,99.90
2023-03-01T22:56:21.511Z,99.90
2023-03-01T22:58:48.808Z,99.90
2023-03-01T23:01:17.881Z,99.90
2023-03-01T23:03:44.601Z,99.90
2023-03-01T23:06:11.735Z,99.90
2023-03-01T23:08:38.540Z,99.90
2023-03-01T23:11:10.041Z,99.90
2023-03-01T23:13:36.858Z,99.90
2023-03-01T23:16:06.321Z,99.90
2023-03-01T23:18:34.667Z,99.90
2023-03-01T23:21:08.086Z,99.90
2023-03-01T23:23:35.389Z,99.90
2023-03-01T23:26:02.510Z,99.90
2023-03-01T23:28:31.173Z,99.90
2023-03-01T23:31:00.332Z,99.90
2023-03-01T23:33:27.359Z,99.90
2023-03-01T23:35:54.350Z,99.90
2023-03-01T23:38:21.376Z,99.90
2023-03-01T23:40:49.428Z,99.90
2023-03-01T23:43:16.212Z,99.90
2023-03-01T23:45:43.478Z,99.90
2023-03-01T23:48:13.373Z,99.90
2023-03-01T23:50:42.025Z,99.90
2023-03-01T23:53:13.679Z,99.90
2023-03-01T23:55:45.389Z,99.90
2023-03-01T23:58:12.187Z,99.90
